Time;durP1;ratioP1;P1;durP2;ratioP2;P2;SDS_P1;SDS_P2;PMS_P1;PMS_P2;Temp;Humidity;BMP_temperature;BMP_pressure;BME280_temperature;BME280_humidity;BME280_pressure;Samples;Min_cycle;Max_cycle;Signal;HPM_P1;HPM_P2
2022/11/13 00:01:53;;;;;;;6.67;5.60;;;17.70;66.20;18.80;101876.00;;;;5009563;28;20660;-52
2022/11/13 00:04:18;;;;;;;7.50;6.10;;;17.70;66.10;18.80;101884.00;;;;5009729;28;20199;-52
2022/11/13 00:06:44;;;;;;;7.70;5.50;;;17.70;66.20;18.80;101881.00;;;;5009717;28;20800;-51
2022/11/13 00:09:13;;;;;;;7.37;5.57;;;17.70;66.30;18.70;101853.00;;;;5009441;28;20172;-51
2022/11/13 00:11:38;;;;;;;7.53;5.27;;;17.60;66.30;18.70;101896.00;;;;5009690;28;20172;-51
2022/11/13 00:14:04;;;;;;;6.67;5.60;;;17.70;66.40;18.70;101882.00;;;;5009570;28;20204;-51
2022/11/13 00:16:30;;;;;;;8.03;5.77;;;17.60;66.40;18.60;101885.00;;;;4992339;28;20180;-51
2022/11/13 00:18:55;;;;;;;7.10;5.63;;;17.60;66.40;18.60;101889.00;;;;5009740;28;20257;-52
2022/11/13 00:21:23;;;;;;;7.07;5.90;;;17.60;66.40;18.60;101882.00;;;;5009585;28;20208;-51
2022/11/13 00:23:49;;;;;;;7.17;5.70;;;17.60;66.50;18.60;101881.00;;;;5010243;28;20191;-52
2022/11/13 00:26:18;;;;;;;6.23;5.63;;;17.50;66.40;18.60;101881.00;;;;5013144;28;20667;-53
2022/11/13 00:28:44;;;;;;;7.47;5.63;;;17.50;66.50;18.60;101882.00;;;;5009678;28;20175;-52
2022/11/13 00:31:12;;;;;;;6.30;5.70;;;17.50;66.50;18.50;101885.00;;;;5008935;28;20187;-51
2022/11/13 00:33:37;;;;;;;7.23;5.80;;;17.50;66.50;18.50;101869.00;;;;4990991;28;20668;-53
2022/11/13 00:36:07;;;;;;;7.03;5.20;;;17.40;66.40;18.50;101860.00;;;;5008765;28;20187;-52
2022/11/13 00:38:33;;;;;;;6.67;5.83;;;17.50;66.70;18.20;101865.00;;;;4990742;28;20544;-51
2022/11/13 00:40:59;;;;;;;6.00;5.40;;;17.40;66.50;18.50;101872.00;;;;5008264;28;20269;-52
2022/11/13 00:43:25;;;;;;;7.83;6.20;;;17.40;66.40;18.50;101862.00;;;;5008474;28;20199;-51
2022/11/13 00:45:50;;;;;;;6.30;5.70;;;17.40;66.20;18.40;101865.00;;;;5008364;28;20225;-51
2022/11/13 00:48:16;;;;;;;6.23;5.63;;;17.30;66.00;18.40;101856.00;;;;5008516;28;20186;-51
2022/11/13 00:50:43;;;;;;;6.30;5.70;;;17.30;66.00;18.40;101855.00;;;;5008329;28;20176;-51
2022/11/13 00:53:08;;;;;;;5.73;5.13;;;17.40;66.10;18.40;101782.00;;;;5008264;28;20649;-52
2022/11/13 00:55:34;;;;;;;6.20;5.60;;;17.30;66.00;18.40;101851.00;;;;5008396;28;20228;-50
2022/11/13 00:58:00;;;;;;;6.00;5.40;;;17.30;66.00;18.40;101845.00;;;;5008645;28;20302;-51
2022/11/13 01:00:25;;;;;;;6.53;5.37;;;17.30;66.10;18.30;101842.00;;;;5008094;28;20226;-51
2022/11/13 01:02:51;;;;;;;5.83;5.33;;;17.20;65.90;18.30;101845.00;;;;5008351;28;20652;-52
2022/11/13 01:05:17;;;;;;;6.07;5.47;;;17.30;66.00;18.30;101836.00;;;;5012442;28;20198;-52
2022/11/13 01:07:42;;;;;;;6.03;5.43;;;17.20;66.00;18.30;101837.00;;;;5013119;28;20178;-51
2022/11/13 01:10:08;;;;;;;5.77;5.27;;;17.20;66.20;18.30;101838.00;;;;5012572;28;20225;-52
2022/11/13 01:12:34;;;;;;;6.07;5.43;;;17.20;66.30;18.30;101836.00;;;;5012352;28;20710;-51
2022/11/13 01:15:00;;;;;;;5.43;4.93;;;17.20;66.30;18.20;101840.00;;;;5012393;28;20196;-50
2022/11/13 01:17:26;;;;;;;6.10;5.53;;;17.20;66.30;18.20;101851.00;;;;5012349;28;20267;-50
2022/11/13 01:19:51;;;;;;;5.57;5.07;;;17.10;66.30;18.20;101844.00;;;;5012224;28;20184;-51
2022/11/13 01:22:17;;;;;;;5.90;5.40;;;17.20;66.40;18.20;101848.00;;;;5011524;28;20294;-51
2022/11/13 01:24:43;;;;;;;5.60;5.10;;;17.10;66.30;18.20;101838.00;;;;5012074;28;20201;-51
2022/11/13 01:27:09;;;;;;;6.07;5.10;;;17.10;66.30;18.20;101838.00;;;;5011713;28;20275;-51
2022/11/13 01:29:36;;;;;;;5.53;5.03;;;17.10;66.30;18.20;101849.00;;;;5011943;28;20185;-51
2022/11/13 01:32:02;;;;;;;5.83;5.20;;;17.10;66.30;18.10;101849.00;;;;5011456;28;20178;-50
2022/11/13 01:34:27;;;;;;;5.50;5.00;;;17.10;66.30;18.10;101838.00;;;;4993976;28;20321;-50
2022/11/13 01:36:53;;;;;;;6.00;5.50;;;17.00;66.20;18.10;101832.00;;;;5011642;28;20186;-51
2022/11/13 01:39:19;;;;;;;5.53;5.03;;;17.10;66.30;18.10;101841.00;;;;5011738;28;20183;-51
2022/11/13 01:41:44;;;;;;;5.67;5.17;;;17.00;66.20;18.00;101832.00;;;;5011369;28;20203;-53
2022/11/13 01:44:12;;;;;;;5.70;5.20;;;17.00;66.20;18.00;101848.00;;;;5011509;28;20199;-51
2022/11/13 01:46:41;;;;;;;5.80;5.30;;;17.00;66.20;18.00;101830.00;;;;4994122;28;20197;-51
2022/11/13 01:49:10;;;;;;;5.37;4.93;;;17.00;66.20;18.00;101834.00;;;;5011902;28;20185;-52
2022/11/13 01:51:44;;;;;;;5.70;5.20;;;17.00;66.20;18.00;101823.00;;;;5011529;28;20566;-50
2022/11/13 01:54:14;;;;;;;6.50;5.20;;;16.90;66.10;18.00;101821.00;;;;5011642;28;20253;-51
2022/11/13 01:56:41;;;;;;;5.40;4.90;;;16.90;66.10;18.00;101815.00;;;;4978622;28;20186;-52
2022/11/13 01:59:19;;;;;;;5.57;5.07;;;17.00;66.20;18.00;101807.00;;;;4978104;28;20224;-50
2022/11/13 02:01:44;;;;;;;5.40;4.90;;;16.90;66.10;17.70;101810.00;;;;4993944;28;20678;-51
2022/11/13 02:04:10;;;;;;;5.20;4.80;;;16.90;66.00;18.00;101813.00;;;;5013608;28;20194;-51
2022/11/13 02:06:49;;;;;;;5.43;5.00;;;16.90;66.00;18.00;101804.00;;;;5011564;28;20174;-52
2022/11/13 02:09:17;;;;;;;5.23;4.83;;;16.90;65.90;18.00;101808.00;;;;4993959;28;20183;-52
2022/11/13 02:11:43;;;;;;;5.30;4.80;;;16.90;65.90;18.00;101773.00;;;;4994002;28;20178;-51
2022/11/13 02:14:08;;;;;;;5.67;5.17;;;16.90;65.90;18.00;101789.00;;;;4977503;28;20340;-51
2022/11/13 02:16:34;;;;;;;4.97;4.57;;;16.90;65.80;18.00;101800.00;;;;5011158;28;20187;-51
2022/11/13 02:19:02;;;;;;;5.50;5.00;;;16.90;65.70;18.00;101798.00;;;;4993324;28;20206;-51
2022/11/13 02:21:43;;;;;;;5.37;4.90;;;16.80;65.60;18.00;101788.00;;;;4993033;28;20841;-50
2022/11/13 02:24:27;;;;;;;5.13;4.73;;;16.80;65.60;17.90;101780.00;;;;4993340;28;20390;-50
2022/11/13 02:26:53;;;;;;;5.27;4.77;;;16.80;65.60;17.90;101800.00;;;;5011132;28;20634;-52
2022/11/13 02:29:19;;;;;;;5.33;4.83;;;16.80;65.60;17.90;101783.00;;;;4977578;28;20169;-50
2022/11/13 02:31:44;;;;;;;5.27;4.77;;;16.80;65.60;17.70;101713.00;;;;5010791;28;20615;-51
2022/11/13 02:34:10;;;;;;;5.30;4.87;;;16.80;65.60;17.90;101790.00;;;;5011387;28;20198;-50
2022/11/13 02:36:36;;;;;;;4.83;4.43;;;16.80;65.60;17.90;101782.00;;;;5010884;28;20593;-51
2022/11/13 02:39:05;;;;;;;5.30;4.80;;;16.80;65.40;17.90;101773.00;;;;5010673;28;20171;-50
2022/11/13 02:41:31;;;;;;;5.20;4.70;;;16.80;65.60;17.90;101771.00;;;;4977206;28;20228;-50
2022/11/13 02:43:57;;;;;;;5.20;4.80;;;16.70;65.40;17.80;101778.00;;;;5010571;28;20198;-49
2022/11/13 02:46:22;;;;;;;5.20;4.80;;;16.70;65.40;17.80;101775.00;;;;5010378;28;20651;-50
2022/11/13 02:48:48;;;;;;;5.30;4.80;;;16.70;65.30;17.80;101770.00;;;;5010626;28;20173;-52
2022/11/13 02:51:14;;;;;;;5.10;4.70;;;16.70;65.40;17.80;101773.00;;;;5010013;28;20177;-52
2022/11/13 02:53:39;;;;;;;5.13;4.67;;;16.70;65.50;17.80;101775.00;;;;5010489;28;20646;-51
2022/11/13 02:56:05;;;;;;;5.33;4.83;;;16.60;65.40;17.70;101763.00;;;;5010111;28;20206;-51
2022/11/13 02:58:31;;;;;;;5.07;4.63;;;16.60;65.40;17.70;101759.00;;;;5010489;28;20182;-51
2022/11/13 03:00:57;;;;;;;5.17;4.77;;;16.60;65.40;17.70;101769.00;;;;4992870;28;20203;-52
2022/11/13 03:03:23;;;;;;;4.80;4.40;;;16.60;65.50;17.70;101758.00;;;;4992429;28;20219;-51
2022/11/13 03:05:49;;;;;;;5.27;4.87;;;16.60;65.60;17.70;101743.00;;;;5010216;28;20647;-52
2022/11/13 03:08:15;;;;;;;5.30;4.90;;;16.60;65.50;17.70;101759.00;;;;4992341;28;20560;-51
2022/11/13 03:10:41;;;;;;;5.20;4.80;;;16.60;65.50;17.60;101753.00;;;;5009921;28;20168;-50
2022/11/13 03:13:07;;;;;;;5.00;4.60;;;16.50;65.50;17.60;101758.00;;;;5009898;28;20236;-52
2022/11/13 03:15:33;;;;;;;6.43;4.60;;;16.50;65.50;17.60;101748.00;;;;5009952;28;20199;-49
2022/11/13 03:18:06;;;;;;;5.03;4.63;;;16.50;65.60;17.60;101760.00;;;;5009931;28;20181;-51
2022/11/13 03:20:31;;;;;;;5.20;4.80;;;16.50;65.60;17.60;101753.00;;;;5010074;28;20202;-51
2022/11/13 03:22:57;;;;;;;5.20;4.80;;;16.50;65.60;17.60;101749.00;;;;5009629;28;20659;-52
2022/11/13 03:25:23;;;;;;;4.77;4.37;;;16.50;65.50;17.60;101744.00;;;;5009808;28;20201;-50
2022/11/13 03:27:48;;;;;;;5.27;4.80;;;16.50;65.50;17.60;101746.00;;;;5009057;28;20186;-51
2022/11/13 03:30:14;;;;;;;5.10;4.60;;;16.50;65.40;17.60;101754.00;;;;5009881;28;20173;-50
2022/11/13 03:32:40;;;;;;;5.00;4.60;;;16.50;65.30;17.60;101745.00;;;;5009512;28;20968;-49
2022/11/13 03:35:06;;;;;;;5.10;4.50;;;16.50;65.30;17.30;101766.00;;;;5009639;28;20191;-51
2022/11/13 03:37:32;;;;;;;5.60;4.50;;;16.40;65.40;17.60;101749.00;;;;5009411;28;20182;-51
2022/11/13 03:39:58;;;;;;;5.10;4.60;;;16.50;65.30;17.60;101751.00;;;;5009791;28;20531;-51
2022/11/13 03:42:23;;;;;;;4.60;4.20;;;16.40;65.10;17.50;101746.00;;;;5009536;28;20647;-49
2022/11/13 03:44:49;;;;;;;5.00;4.60;;;16.40;65.20;17.50;101745.00;;;;5009532;28;20661;-51
2022/11/13 03:47:15;;;;;;;4.83;4.43;;;16.40;65.20;17.50;101747.00;;;;5009369;28;20183;-50
2022/11/13 03:49:40;;;;;;;4.83;4.43;;;16.40;65.20;17.50;101750.00;;;;5013080;28;20201;-52
2022/11/13 03:52:06;;;;;;;4.70;4.30;;;16.40;65.10;17.20;101675.00;;;;5009078;28;20189;-52
2022/11/13 03:54:32;;;;;;;4.70;4.30;;;16.40;65.10;17.50;101748.00;;;;5009216;28;20232;-52
2022/11/13 03:56:58;;;;;;;4.93;4.53;;;16.30;65.00;17.50;101748.00;;;;5008812;28;20174;-51
2022/11/13 03:59:23;;;;;;;5.00;4.60;;;16.30;64.90;17.50;101743.00;;;;5009318;28;20198;-51
2022/11/13 04:01:49;;;;;;;4.70;4.13;;;16.30;65.00;17.50;101739.00;;;;5008879;28;20256;-51
2022/11/13 04:04:15;;;;;;;4.70;4.30;;;16.30;65.00;17.50;101728.00;;;;5009341;28;20698;-50
2022/11/13 04:06:40;;;;;;;4.70;4.30;;;16.30;65.10;17.50;101722.00;;;;5009456;28;20179;-52
2022/11/13 04:09:06;;;;;;;4.90;4.50;;;16.30;65.10;17.40;101728.00;;;;5009393;28;20177;-52
2022/11/13 04:11:32;;;;;;;4.53;4.13;;;16.30;65.00;17.40;101725.00;;;;5008766;28;20191;-51
2022/11/13 04:13:58;;;;;;;4.90;4.50;;;16.20;64.90;17.40;101720.00;;;;5008884;28;20241;-49
2022/11/13 04:16:24;;;;;;;4.57;4.17;;;16.20;64.90;17.40;101720.00;;;;5008784;28;20214;-50
2022/11/13 04:18:49;;;;;;;4.57;4.23;;;16.20;65.00;17.40;101723.00;;;;5008733;28;20296;-51
2022/11/13 04:21:15;;;;;;;5.13;4.33;;;16.20;65.00;17.30;101714.00;;;;5008504;28;20231;-51
2022/11/13 04:23:41;;;;;;;4.60;4.20;;;16.20;64.90;17.30;101710.00;;;;5008653;28;20267;-51
2022/11/13 04:26:07;;;;;;;4.50;4.20;;;16.20;65.00;17.30;101711.00;;;;5008869;28;20183;-51
2022/11/13 04:28:32;;;;;;;12.17;4.43;;;16.20;64.90;17.30;101719.00;;;;5008898;28;20176;-50
2022/11/13 04:30:58;;;;;;;8.33;4.20;;;16.20;65.40;17.30;101718.00;;;;4991222;28;20234;-51
2022/11/13 04:33:24;;;;;;;4.53;4.10;;;16.20;65.20;17.30;101703.00;;;;5008316;28;20204;-51
2022/11/13 04:35:50;;;;;;;5.40;4.20;;;16.10;65.20;17.30;101711.00;;;;5008480;28;20264;-50
2022/11/13 04:38:15;;;;;;;4.70;4.20;;;16.10;65.10;17.30;101704.00;;;;5007822;28;20177;-50
2022/11/13 04:40:41;;;;;;;4.70;4.20;;;16.10;65.30;17.20;101698.00;;;;5008351;28;20192;-50
2022/11/13 04:43:07;;;;;;;7.73;4.43;;;16.10;65.20;17.20;101697.00;;;;5008517;28;20203;-51
2022/11/13 04:45:33;;;;;;;5.93;4.27;;;16.10;65.20;17.20;101710.00;;;;5008336;28;20537;-50
2022/11/13 04:47:58;;;;;;;6.23;4.30;;;16.10;65.30;17.20;101702.00;;;;5008499;28;20677;-51
2022/11/13 04:50:24;;;;;;;6.20;4.60;;;16.00;65.10;17.10;101684.00;;;;5008705;28;20180;-50
2022/11/13 04:52:50;;;;;;;7.03;4.37;;;16.00;65.20;17.10;101691.00;;;;5008556;28;20215;-50
2022/11/13 04:55:16;;;;;;;6.57;4.40;;;16.00;65.10;17.10;101685.00;;;;5008650;28;20229;-50
2022/11/13 04:57:41;;;;;;;6.10;4.33;;;16.00;65.20;17.10;101677.00;;;;5008096;28;20230;-50
2022/11/13 05:00:08;;;;;;;4.33;3.93;;;16.00;65.10;17.10;101679.00;;;;5008726;28;20199;-52
2022/11/13 05:02:34;;;;;;;4.40;4.00;;;15.90;65.00;17.00;101674.00;;;;5008224;28;20211;-51
2022/11/13 05:05:00;;;;;;;4.87;4.30;;;15.90;65.00;17.00;101676.00;;;;5008127;28;20281;-50
2022/11/13 05:07:26;;;;;;;4.87;4.17;;;15.90;65.00;17.00;101678.00;;;;4990689;28;20171;-51
2022/11/13 05:09:52;;;;;;;6.27;4.10;;;15.90;65.00;17.00;101682.00;;;;5008524;28;20171;-51
2022/11/13 05:12:19;;;;;;;4.57;4.10;;;15.90;65.00;17.00;101676.00;;;;5008193;28;20652;-50
2022/11/13 05:14:44;;;;;;;4.83;4.37;;;15.90;65.00;17.00;101676.00;;;;5008317;28;20195;-51
2022/11/13 05:17:11;;;;;;;4.20;3.90;;;15.90;65.00;16.90;101674.00;;;;5003418;28;20494;-50
2022/11/13 05:19:37;;;;;;;3.93;3.53;;;15.80;64.90;16.90;101676.00;;;;5007209;28;20191;-50
2022/11/13 05:22:03;;;;;;;4.10;3.70;;;15.80;64.90;16.90;101675.00;;;;5007157;28;20195;-52
2022/11/13 05:24:29;;;;;;;4.30;4.00;;;15.80;64.90;16.90;101673.00;;;;5007370;28;20238;-51
2022/11/13 05:26:54;;;;;;;4.30;3.90;;;15.80;64.90;16.90;101673.00;;;;5007002;28;20168;-50
2022/11/13 05:29:20;;;;;;;5.87;4.17;;;15.80;65.00;16.60;101671.00;;;;4990358;28;20163;-49
2022/11/13 05:31:46;;;;;;;5.00;4.10;;;15.80;64.90;16.80;101675.00;;;;5007479;28;20658;-50
2022/11/13 05:34:12;;;;;;;4.40;4.00;;;15.80;65.00;16.80;101671.00;;;;5008114;28;20195;-50
2022/11/13 05:36:37;;;;;;;4.90;3.80;;;15.80;64.90;16.80;101666.00;;;;5007787;28;20245;-50
2022/11/13 05:39:03;;;;;;;5.80;3.90;;;15.70;64.80;16.80;101675.00;;;;5008155;28;20610;-51
2022/11/13 05:41:29;;;;;;;4.10;3.80;;;15.70;64.80;16.80;101675.00;;;;5007709;28;20254;-50
2022/11/13 05:43:55;;;;;;;5.30;4.27;;;15.70;64.80;16.80;101664.00;;;;5007795;28;20596;-50
2022/11/13 05:46:24;;;;;;;8.13;3.93;;;15.70;64.80;16.80;101663.00;;;;5007914;28;20203;-51
2022/11/13 05:48:58;;;;;;;6.33;4.10;;;15.70;64.90;16.80;101664.00;;;;5011371;28;20176;-51
2022/11/13 05:51:27;;;;;;;5.13;3.73;;;15.70;65.10;16.80;101660.00;;;;5014958;28;20181;-52
2022/11/13 05:53:53;;;;;;;4.83;4.10;;;15.70;65.20;16.80;101657.00;;;;5011695;28;20287;-50
2022/11/13 05:56:27;;;;;;;5.63;3.80;;;15.70;65.10;16.80;101648.00;;;;5011355;28;20266;-50
2022/11/13 05:58:53;;;;;;;5.80;4.03;;;15.70;65.20;16.80;101656.00;;;;5012120;28;20164;-50
2022/11/13 06:01:27;;;;;;;4.40;4.00;;;15.70;65.20;16.80;101645.00;;;;4993764;28;20923;-51
2022/11/13 06:03:55;;;;;;;5.37;3.83;;;15.70;65.30;16.80;101639.00;;;;5011729;28;20566;-51
2022/11/13 06:06:21;;;;;;;6.03;4.17;;;15.70;65.40;16.80;101646.00;;;;5011507;28;20188;-51
2022/11/13 06:08:47;;;;;;;4.80;3.90;;;15.70;65.40;16.80;101638.00;;;;5011649;28;20246;-50
2022/11/13 06:11:16;;;;;;;4.10;3.70;;;15.70;65.40;16.80;101631.00;;;;4994237;28;20183;-51
2022/11/13 06:13:41;;;;;;;6.27;3.77;;;15.70;65.30;16.80;101626.00;;;;5011780;28;20195;-52
2022/11/13 06:16:12;;;;;;;6.20;3.80;;;15.70;65.40;16.80;101625.00;;;;5011307;28;20586;-51
2022/11/13 06:18:38;;;;;;;4.10;3.70;;;15.70;65.40;16.70;101623.00;;;;4994141;28;20179;-50
2022/11/13 06:21:16;;;;;;;4.70;3.97;;;15.70;65.50;16.70;101623.00;;;;5011759;28;20202;-50
2022/11/13 06:23:42;;;;;;;4.97;3.57;;;15.70;65.50;16.70;101618.00;;;;5011853;28;20715;-51
2022/11/13 06:26:10;;;;;;;4.27;3.90;;;15.70;65.60;16.70;101615.00;;;;5011221;28;20258;-51
2022/11/13 06:28:36;;;;;;;3.80;3.50;;;15.70;65.50;16.70;101604.00;;;;5011346;28;20180;-50
2022/11/13 06:31:08;;;;;;;3.67;3.37;;;15.70;65.60;16.70;101600.00;;;;5010599;28;20187;-50
2022/11/13 06:33:33;;;;;;;5.10;3.67;;;15.60;65.50;16.70;101598.00;;;;5011177;28;20242;-51
2022/11/13 06:36:04;;;;;;;4.30;3.57;;;15.60;65.60;16.70;101589.00;;;;5011024;28;20203;-51
2022/11/13 06:38:36;;;;;;;4.50;3.50;;;15.60;65.60;16.70;101597.00;;;;5011391;28;20184;-51
2022/11/13 06:41:03;;;;;;;5.10;3.37;;;15.60;65.70;16.70;101590.00;;;;5011226;28;20191;-51
2022/11/13 06:43:29;;;;;;;3.87;3.43;;;15.60;65.60;16.70;101594.00;;;;5010716;28;20553;-50
2022/11/13 06:45:55;;;;;;;4.03;3.47;;;15.60;65.60;16.60;101592.00;;;;4993306;28;20179;-49
2022/11/13 06:48:21;;;;;;;4.23;3.23;;;15.60;65.70;16.60;101573.00;;;;5011028;28;20182;-49
2022/11/13 06:50:47;;;;;;;4.83;3.50;;;15.50;65.70;16.60;101587.00;;;;5011149;28;20175;-50
2022/11/13 06:53:13;;;;;;;4.17;3.60;;;15.60;65.80;16.60;101589.00;;;;5010723;28;20233;-48
2022/11/13 06:55:47;;;;;;;3.60;3.30;;;15.50;65.80;16.60;101595.00;;;;5010577;28;20186;-51
2022/11/13 06:58:13;;;;;;;3.70;3.40;;;15.50;65.80;16.60;101584.00;;;;5010924;28;20163;-50
2022/11/13 07:00:40;;;;;;;3.40;3.10;;;15.50;65.70;16.60;101598.00;;;;5009718;28;20178;-51
2022/11/13 07:03:05;;;;;;;3.70;3.40;;;15.50;65.80;16.60;101587.00;;;;5009949;28;20164;-51
2022/11/13 07:05:34;;;;;;;3.60;3.30;;;15.50;65.80;16.50;101579.00;;;;5010428;28;20534;-51
2022/11/13 07:08:00;;;;;;;3.43;3.13;;;15.50;65.90;16.50;101596.00;;;;4993999;28;20778;-50
2022/11/13 07:10:25;;;;;;;3.70;3.40;;;15.40;65.70;16.50;101598.00;;;;4993106;28;20199;-51
2022/11/13 07:12:51;;;;;;;3.70;3.40;;;15.50;65.90;16.50;101603.00;;;;5010237;28;20183;-50
2022/11/13 07:15:17;;;;;;;3.83;3.20;;;15.50;66.70;16.50;101593.00;;;;4992500;28;20200;-50
2022/11/13 07:17:43;;;;;;;3.43;3.20;;;15.40;65.80;16.50;101591.00;;;;5010187;28;20827;-51
2022/11/13 07:20:09;;;;;;;3.70;3.40;;;15.40;65.80;16.50;101594.00;;;;5010466;28;20176;-52
2022/11/13 07:22:35;;;;;;;3.83;3.30;;;15.40;65.90;16.50;101592.00;;;;5010081;28;20332;-50
2022/11/13 07:25:01;;;;;;;3.30;3.00;;;15.40;65.80;16.50;101596.00;;;;5009776;28;20875;-51
2022/11/13 07:27:26;;;;;;;3.50;3.20;;;15.40;65.90;16.50;101586.00;;;;5010150;28;20257;-50
2022/11/13 07:29:52;;;;;;;3.70;3.20;;;15.40;66.00;16.50;101588.00;;;;5010161;28;20185;-50
2022/11/13 07:32:18;;;;;;;3.53;3.20;;;15.40;65.90;16.50;101588.00;;;;5009768;28;20175;-50
2022/11/13 07:34:43;;;;;;;3.73;3.37;;;15.50;66.10;16.50;101599.00;;;;5009903;28;20227;-51
2022/11/13 07:37:09;;;;;;;3.70;3.37;;;15.40;66.00;16.50;101589.00;;;;5009837;28;20190;-50
2022/11/13 07:39:35;;;;;;;3.50;3.20;;;15.40;66.00;16.40;101591.00;;;;5010064;28;20182;-50
2022/11/13 07:42:00;;;;;;;3.47;3.13;;;15.40;66.00;16.40;101594.00;;;;5010018;28;20760;-50
2022/11/13 07:44:26;;;;;;;3.60;3.30;;;15.40;66.00;16.40;101579.00;;;;5009937;28;20191;-50
2022/11/13 07:46:52;;;;;;;3.30;3.10;;;15.30;66.00;16.40;101583.00;;;;5009474;28;20168;-50
2022/11/13 07:49:17;;;;;;;3.40;3.10;;;15.30;66.00;16.40;101579.00;;;;5010143;28;20648;-52
2022/11/13 07:51:43;;;;;;;3.40;3.10;;;15.30;66.00;16.40;101575.00;;;;5009965;28;20214;-51
2022/11/13 07:54:09;;;;;;;4.10;3.20;;;15.30;66.00;16.40;101566.00;;;;5010132;28;20279;-51
2022/11/13 07:56:35;;;;;;;3.07;2.87;;;15.30;66.10;16.40;101557.00;;;;5008506;28;20180;-51
2022/11/13 07:59:00;;;;;;;3.10;2.90;;;15.30;66.00;16.40;101572.00;;;;5009747;28;20183;-51
2022/11/13 08:01:26;;;;;;;3.23;3.00;;;15.30;66.10;16.30;101570.00;;;;4990978;28;20206;-50
2022/11/13 08:03:52;;;;;;;3.30;3.03;;;15.30;66.10;16.30;101572.00;;;;5009419;28;20719;-51
2022/11/13 08:06:17;;;;;;;4.03;2.90;;;15.30;66.10;16.30;101573.00;;;;5008945;28;20226;-50
2022/11/13 08:08:46;;;;;;;2.90;2.70;;;15.30;66.20;16.30;101572.00;;;;5009355;28;20175;-51
2022/11/13 08:11:12;;;;;;;3.40;3.10;;;15.30;66.20;16.30;101565.00;;;;4991969;28;20184;-51
2022/11/13 08:13:37;;;;;;;3.50;3.10;;;15.30;66.10;16.30;101563.00;;;;4991642;28;20199;-51
2022/11/13 08:16:04;;;;;;;3.17;2.97;;;15.20;66.20;16.30;101563.00;;;;5009076;28;20194;-50
2022/11/13 08:18:30;;;;;;;3.13;2.93;;;15.20;66.20;16.30;101570.00;;;;5009464;28;20184;-51
2022/11/13 08:20:55;;;;;;;3.30;3.10;;;15.30;66.20;16.30;101557.00;;;;4991719;28;20673;-50
2022/11/13 08:23:21;;;;;;;3.07;2.87;;;15.20;66.10;16.30;101551.00;;;;5009059;28;20223;-50
2022/11/13 08:25:47;;;;;;;3.30;3.00;;;15.20;66.20;16.20;101543.00;;;;4991598;28;20178;-49
2022/11/13 08:28:13;;;;;;;2.93;2.73;;;15.20;66.20;16.20;101564.00;;;;5009461;28;20188;-50
2022/11/13 08:30:39;;;;;;;3.40;3.10;;;15.20;66.20;16.20;101543.00;;;;5009202;28;20187;-49
2022/11/13 08:33:04;;;;;;;4.63;3.30;;;15.20;66.40;16.20;101539.00;;;;4991329;28;20179;-50
2022/11/13 08:35:30;;;;;;;3.00;2.80;;;15.20;66.50;16.20;101547.00;;;;5009143;28;20179;-51
2022/11/13 08:38:06;;;;;;;3.20;2.90;;;15.20;66.50;16.20;101545.00;;;;5009411;28;20178;-50
2022/11/13 08:40:32;;;;;;;3.00;2.80;;;15.20;66.50;16.20;101547.00;;;;5009125;28;20238;-49
2022/11/13 08:43:02;;;;;;;2.93;2.73;;;15.20;66.50;16.20;101545.00;;;;5008692;28;20209;-50
2022/11/13 08:45:28;;;;;;;3.10;2.87;;;15.20;66.50;16.20;101541.00;;;;5008327;28;20811;-50
2022/11/13 08:48:01;;;;;;;3.30;3.00;;;15.20;66.50;16.20;101532.00;;;;5008692;28;20258;-50
2022/11/13 08:50:28;;;;;;;3.30;3.00;;;15.20;66.60;16.20;101543.00;;;;5009057;28;20170;-51
2022/11/13 08:52:55;;;;;;;2.90;2.70;;;15.20;66.60;16.20;101530.00;;;;5008705;28;20279;-51
2022/11/13 08:55:20;;;;;;;3.00;2.80;;;15.10;66.50;16.20;101524.00;;;;5008311;28;20699;-51
2022/11/13 08:57:46;;;;;;;3.87;2.60;;;15.10;66.50;16.10;101527.00;;;;5008567;28;20175;-50
2022/11/13 09:00:13;;;;;;;2.80;2.60;;;15.20;66.60;16.10;101511.00;;;;5008565;28;20179;-51
2022/11/13 09:02:38;;;;;;;3.43;3.17;;;15.10;66.60;16.10;101517.00;;;;5008155;28;20261;-51
2022/11/13 09:05:05;;;;;;;3.20;3.00;;;15.20;66.60;16.10;101511.00;;;;5008446;28;20198;-49
2022/11/13 09:07:30;;;;;;;3.00;2.80;;;15.10;66.60;16.10;101513.00;;;;5008535;28;20175;-51
2022/11/13 09:09:56;;;;;;;2.90;2.70;;;15.10;66.60;16.10;101513.00;;;;5008503;28;20632;-50
2022/11/13 09:12:22;;;;;;;2.97;2.77;;;15.10;66.60;16.10;101501.00;;;;5008822;28;20211;-50
2022/11/13 09:14:47;;;;;;;3.03;2.83;;;15.10;66.70;16.10;101506.00;;;;5008795;28;20257;-49
2022/11/13 09:17:13;;;;;;;3.10;2.83;;;15.10;66.80;16.10;101500.00;;;;5008467;28;20230;-51
2022/11/13 09:19:39;;;;;;;2.50;2.30;;;15.10;66.70;16.10;101499.00;;;;5007340;28;20274;-50
2022/11/13 09:22:05;;;;;;;2.70;2.50;;;15.10;66.70;16.10;101498.00;;;;5008005;28;20198;-51
2022/11/13 09:24:30;;;;;;;2.83;2.60;;;15.10;66.80;16.10;101497.00;;;;5008573;28;20294;-51
2022/11/13 09:26:56;;;;;;;2.80;2.60;;;15.10;66.80;16.10;101498.00;;;;5011999;28;20180;-51
2022/11/13 09:29:22;;;;;;;2.83;2.57;;;15.10;66.80;16.10;101497.00;;;;5012266;28;20187;-51
2022/11/13 09:31:49;;;;;;;2.90;2.70;;;15.10;66.80;16.10;101499.00;;;;4943891;28;20211;-51
2022/11/13 09:34:14;;;;;;;2.80;2.60;;;15.10;67.00;16.10;101490.00;;;;5012062;28;20210;-51
2022/11/13 09:36:40;;;;;;;2.97;2.70;;;15.10;67.00;16.10;101498.00;;;;5012240;28;20180;-52
2022/11/13 09:39:06;;;;;;;3.07;2.80;;;15.10;67.40;16.10;101497.00;;;;5011906;28;20176;-51
2022/11/13 09:41:46;;;;;;;5.47;3.00;;;15.10;67.60;16.10;101492.00;;;;5011957;28;20203;-51
2022/11/13 09:44:50;;;;;;;5.37;3.10;;;15.20;68.20;16.10;101492.00;;;;4979008;28;20199;-51
2022/11/13 09:47:50;;;;;;;4.50;2.87;;;15.20;68.40;16.10;101494.00;;;;4997187;28;20274;-51
2022/11/13 09:50:25;;;;;;;2.97;2.77;;;15.40;68.20;16.20;101499.00;;;;5009345;28;20521;-51
2022/11/13 09:52:52;;;;;;;4.20;2.77;;;15.50;68.80;16.20;101448.00;;;;4994079;28;20640;-51
2022/11/13 09:55:21;;;;;;;4.67;3.07;;;15.70;67.80;16.30;101505.00;;;;4977131;28;20540;-50
2022/11/13 09:58:27;;;;;;;3.70;2.73;;;15.80;67.60;16.50;101494.00;;;;4976188;28;20180;-52
2022/11/13 10:00:53;;;;;;;3.90;2.80;;;16.00;67.40;16.50;101503.00;;;;4966518;28;20194;-51
2022/11/13 10:03:38;;;;;;;3.33;2.50;;;16.20;67.00;16.70;101490.00;;;;4992339;28;20172;-51
2022/11/13 10:06:23;;;;;;;3.20;2.87;;;16.40;66.70;16.80;101492.00;;;;5009845;28;20160;-51
2022/11/13 10:08:57;;;;;;;3.03;2.47;;;16.60;66.30;16.90;101485.00;;;;4994439;28;20188;-51
2022/11/13 10:11:46;;;;;;;3.60;2.80;;;16.80;66.00;17.10;101479.00;;;;4993799;28;20176;-51
2022/11/13 10:14:20;;;;;;;2.83;2.57;;;17.00;65.80;17.20;101501.00;;;;4979157;28;20612;-51
2022/11/13 10:16:53;;;;;;;2.70;2.50;;;17.30;65.60;17.40;101459.00;;;;4994074;28;20578;-51
2022/11/13 10:19:57;;;;;;;2.90;2.70;;;17.40;65.20;17.60;101476.00;;;;4995188;28;20176;-51
2022/11/13 10:22:50;;;;;;;2.80;2.50;;;17.60;65.20;17.70;101473.00;;;;4975632;28;20264;-50
2022/11/13 10:25:19;;;;;;;5.13;2.40;;;17.80;65.00;17.80;101476.00;;;;4994784;28;20835;-52
2022/11/13 10:27:57;;;;;;;4.67;2.60;;;17.90;65.20;17.90;101470.00;;;;4994529;28;20178;-50
2022/11/13 10:30:22;;;;;;;4.27;2.77;;;17.90;65.50;18.10;101458.00;;;;4939026;28;21867;-52
2022/11/13 10:32:48;;;;;;;5.40;2.90;;;18.00;65.60;18.20;101469.00;;;;5011130;28;20203;-51
2022/11/13 10:35:40;;;;;;;3.47;2.60;;;18.10;65.90;18.30;101463.00;;;;4993328;28;20208;-51
2022/11/13 10:38:49;;;;;;;4.87;2.67;;;18.20;66.10;18.30;101453.00;;;;5011320;28;20226;-50
2022/11/13 10:41:19;;;;;;;5.33;2.70;;;18.30;65.90;18.40;101458.00;;;;4981547;28;20294;-50
2022/11/13 10:43:58;;;;;;;7.00;2.77;;;18.30;65.80;18.50;101449.00;;;;4993787;28;20207;-50
2022/11/13 10:46:28;;;;;;;6.33;2.80;;;18.40;66.30;18.60;101441.00;;;;5011293;28;20177;-51
2022/11/13 10:48:57;;;;;;;6.43;2.70;;;18.40;66.10;18.60;101446.00;;;;5027766;28;20184;-49
2022/11/13 10:51:30;;;;;;;5.17;2.70;;;18.50;66.30;18.70;101438.00;;;;5030602;28;20179;-49